Time;durP1;ratioP1;P1;durP2;ratioP2;P2;SDS_P1;SDS_P2;PMS_P1;PMS_P2;Temp;Humidity;BMP_temperature;BMP_pressure;BME280_temperature;BME280_humidity;BME280_pressure;Samples;Min_cycle;Max_cycle;Signal;HPM_P1;HPM_P2
2022/11/28 00:01:40;;;;;;;23.83;4.50;;;7.80;99.90;;;;;;4970699;28;20037;-60
2022/11/28 00:04:07;;;;;;;22.40;5.15;;;7.80;99.90;;;;;;4975381;28;20525;-60
2022/11/28 00:06:38;;;;;;;21.88;4.05;;;7.70;99.90;;;;;;4969428;28;20039;-61
2022/11/28 00:09:04;;;;;;;14.77;3.40;;;7.60;99.90;;;;;;4970807;28;20510;-60
2022/11/28 00:11:30;;;;;;;23.98;3.58;;;7.60;99.90;;;;;;4973175;28;20023;-60
2022/11/28 00:13:56;;;;;;;27.92;4.40;;;7.60;99.90;;;;;;4970232;28;20058;-60
2022/11/28 00:16:23;;;;;;;30.42;6.35;;;7.70;99.90;;;;;;4973887;28;20081;-60
2022/11/28 00:18:50;;;;;;;11.60;3.67;;;7.70;99.90;;;;;;4972754;28;20116;-63
2022/11/28 00:21:16;;;;;;;21.13;4.22;;;7.70;99.90;;;;;;4971119;28;20033;-61
2022/11/28 00:23:43;;;;;;;25.05;5.70;;;7.70;99.90;;;;;;4971511;28;20570;-61
2022/11/28 00:26:31;;;;;;;27.95;3.05;;;7.70;99.90;;;;;;4971058;28;20085;-60
2022/11/28 00:28:58;;;;;;;20.38;3.40;;;7.80;99.90;;;;;;4974750;28;20198;-60
2022/11/28 00:31:31;;;;;;;21.58;3.58;;;7.70;99.90;;;;;;4977435;28;20110;-61
2022/11/28 00:33:57;;;;;;;23.55;3.20;;;7.60;99.90;;;;;;4975132;28;20039;-61
2022/11/28 00:36:24;;;;;;;19.42;3.03;;;7.60;99.90;;;;;;4976458;28;20117;-60
2022/11/28 00:38:50;;;;;;;32.40;4.32;;;7.60;99.90;;;;;;4974865;28;20117;-61
2022/11/28 00:41:23;;;;;;;24.88;4.22;;;7.60;99.90;;;;;;4977021;28;20030;-61
2022/11/28 00:43:50;;;;;;;15.43;2.88;;;7.40;99.90;;;;;;4963899;28;20054;-60
2022/11/28 00:46:18;;;;;;;18.35;2.53;;;7.40;99.90;;;;;;4973043;28;20046;-60
2022/11/28 00:48:44;;;;;;;16.50;3.10;;;7.30;99.90;;;;;;4971767;28;20457;-61
2022/11/28 00:51:14;;;;;;;22.13;2.50;;;7.40;99.90;;;;;;4974003;28;20031;-60
2022/11/28 00:53:42;;;;;;;21.73;3.95;;;7.40;99.90;;;;;;4975761;28;20113;-61
2022/11/28 00:56:13;;;;;;;14.75;2.33;;;7.30;99.90;;;;;;4967784;28;20054;-61
2022/11/28 00:58:39;;;;;;;24.08;3.92;;;7.20;99.90;;;;;;4976330;28;20105;-60
2022/11/28 01:01:14;;;;;;;16.40;3.25;;;7.10;99.90;;;;;;4970753;28;20101;-61
2022/11/28 01:03:40;;;;;;;21.80;3.35;;;7.00;99.90;;;;;;4966683;28;20039;-62
2022/11/28 01:06:07;;;;;;;25.70;3.72;;;6.90;99.90;;;;;;4974922;28;20035;-60
2022/11/28 01:08:33;;;;;;;21.70;3.40;;;6.90;99.90;;;;;;4970092;28;20035;-60
2022/11/28 01:10:59;;;;;;;28.42;3.70;;;6.80;99.90;;;;;;4971777;28;20027;-60
2022/11/28 01:13:25;;;;;;;18.60;2.63;;;6.80;99.90;;;;;;4973162;28;20089;-60
2022/11/28 01:15:51;;;;;;;15.95;2.58;;;6.70;99.90;;;;;;4973317;28;20039;-60
2022/11/28 01:18:17;;;;;;;28.15;3.67;;;6.80;99.90;;;;;;4980044;28;20035;-61
2022/11/28 01:20:42;;;;;;;29.23;4.65;;;6.70;99.90;;;;;;4977086;28;20062;-61
2022/11/28 01:23:08;;;;;;;26.17;2.97;;;6.70;99.90;;;;;;4974910;28;21408;-62
2022/11/28 01:25:35;;;;;;;22.63;3.28;;;6.50;99.90;;;;;;4975442;28;20045;-61
2022/11/28 01:28:00;;;;;;;12.90;2.10;;;6.40;99.90;;;;;;4977177;28;20130;-60
2022/11/28 01:30:27;;;;;;;19.02;3.13;;;6.40;99.90;;;;;;4972950;28;20440;-61
2022/11/28 01:32:52;;;;;;;23.15;3.47;;;6.40;99.90;;;;;;4973891;28;20037;-60
2022/11/28 01:35:18;;;;;;;12.75;2.97;;;6.30;99.90;;;;;;4981886;28;20110;-60
2022/11/28 01:37:44;;;;;;;18.55;3.28;;;6.30;99.90;;;;;;4979969;28;20105;-60
2022/11/28 01:40:11;;;;;;;11.10;2.20;;;6.30;99.90;;;;;;4982474;28;20130;-60
2022/11/28 01:42:37;;;;;;;18.65;3.35;;;6.40;99.90;;;;;;4986546;28;20054;-60
2022/11/28 01:45:11;;;;;;;22.88;3.17;;;6.50;99.90;;;;;;4976502;28;20051;-60
2022/11/28 01:47:37;;;;;;;24.20;3.10;;;6.50;99.90;;;;;;4971274;28;20031;-60
2022/11/28 01:50:05;;;;;;;17.42;3.22;;;6.50;99.90;;;;;;4974671;28;20078;-61
2022/11/28 01:52:35;;;;;;;29.63;3.50;;;6.40;99.90;;;;;;4980270;28;20018;-60
2022/11/28 01:55:02;;;;;;;22.40;3.10;;;6.50;99.90;;;;;;4971905;28;20031;-60
2022/11/28 01:57:28;;;;;;;22.52;3.00;;;6.40;99.90;;;;;;4971046;28;20027;-60
2022/11/28 02:00:14;;;;;;;20.25;2.97;;;6.40;99.90;;;;;;4972634;28;20039;-61
2022/11/28 02:03:19;;;;;;;28.52;4.28;;;6.50;99.90;;;;;;4973389;28;20042;-60
2022/11/28 02:05:46;;;;;;;25.40;4.70;;;6.40;99.90;;;;;;4943259;28;20027;-60
2022/11/28 02:08:12;;;;;;;19.63;3.92;;;6.40;99.90;;;;;;4931956;29;20063;-60
2022/11/28 02:10:43;;;;;;;18.00;3.75;;;6.30;99.90;;;;;;4913209;29;20068;-60
2022/11/28 02:13:33;;;;;;;18.15;3.30;;;6.30;99.90;;;;;;4933493;29;20599;-61
2022/11/28 02:16:31;;;;;;;22.35;4.57;;;6.30;99.90;;;;;;4926415;29;20034;-61
2022/11/28 02:19:17;;;;;;;24.08;4.07;;;6.30;99.90;;;;;;4912487;29;20499;-61
2022/11/28 02:21:59;;;;;;;24.67;3.80;;;6.30;99.90;;;;;;4928711;28;20028;-60
2022/11/28 02:24:43;;;;;;;;;;;6.30;99.90;;;;;;4934448;29;20426;-60
2022/11/28 02:27:12;;;;;;;23.23;4.13;;;6.40;99.90;;;;;;4933485;28;19911;-60
2022/11/28 02:30:39;;;;;;;24.40;4.18;;;6.50;99.90;;;;;;4933265;29;20039;-60
2022/11/28 02:33:07;;;;;;;18.45;4.18;;;6.50;99.90;;;;;;4857462;29;20068;-60
2022/11/28 02:36:05;;;;;;;20.85;4.07;;;6.60;99.90;;;;;;4850117;29;20038;-61
2022/11/28 02:38:58;;;;;;;24.48;4.18;;;6.50;99.90;;;;;;4854592;29;20033;-61
2022/11/28 02:41:36;;;;;;;24.67;4.32;;;6.50;99.90;;;;;;4890561;29;20788;-61
2022/11/28 02:44:10;;;;;;;29.30;3.83;;;6.50;99.90;;;;;;4892256;29;20040;-60
2022/11/28 02:46:53;;;;;;;27.83;4.60;;;6.50;99.90;;;;;;4891459;29;20084;-60
2022/11/28 02:49:34;;;;;;;24.05;5.10;;;6.50;99.90;;;;;;4888272;29;20053;-60
2022/11/28 02:52:15;;;;;;;23.23;4.70;;;6.60;99.90;;;;;;4893015;29;20044;-60
2022/11/28 02:54:42;;;;;;;23.42;5.18;;;6.60;99.90;;;;;;4889579;29;20127;-60
2022/11/28 02:57:08;;;;;;;28.83;6.55;;;6.70;99.90;;;;;;4892338;29;20123;-60
2022/11/28 02:59:37;;;;;;;42.35;7.88;;;6.70;99.90;;;;;;4890846;29;20563;-60
2022/11/28 03:02:16;;;;;;;26.70;5.88;;;6.80;99.90;;;;;;4893598;29;20060;-60
2022/11/28 03:04:59;;;;;;;24.88;5.10;;;6.80;99.90;;;;;;4952144;28;20042;-60
2022/11/28 03:08:06;;;;;;;19.15;3.30;;;6.90;99.90;;;;;;4977304;28;20034;-60
2022/11/28 03:11:02;;;;;;;27.88;3.42;;;6.90;99.90;;;;;;4973678;28;20057;-60
2022/11/28 03:13:56;;;;;;;18.25;2.67;;;6.90;99.90;;;;;;4960804;28;20023;-61
2022/11/28 03:16:33;;;;;;;26.90;4.35;;;6.90;99.90;;;;;;4973201;28;20035;-61
2022/11/28 03:19:03;;;;;;;24.77;3.85;;;6.80;99.90;;;;;;4971231;28;20125;-60
2022/11/28 03:21:38;;;;;;;19.05;2.72;;;6.80;99.90;;;;;;4974111;28;20038;-60
2022/11/28 03:24:15;;;;;;;32.42;3.17;;;6.70;99.90;;;;;;4969991;28;20249;-60
2022/11/28 03:26:59;;;;;;;16.02;2.83;;;6.70;99.90;;;;;;4969851;28;20057;-60
2022/11/28 03:29:34;;;;;;;22.08;3.22;;;6.70;99.90;;;;;;4974525;28;20065;-60
2022/11/28 03:32:06;;;;;;;23.25;3.10;;;6.60;99.90;;;;;;4977429;28;20553;-60
2022/11/28 03:34:36;;;;;;;31.70;4.50;;;6.60;99.90;;;;;;4968289;28;20463;-59
2022/11/28 03:37:07;;;;;;;25.13;3.53;;;6.60;99.90;;;;;;4968842;28;20023;-60
2022/11/28 03:39:38;;;;;;;23.85;3.20;;;6.70;99.90;;;;;;4969107;28;20062;-61
2022/11/28 03:42:15;;;;;;;21.17;3.22;;;6.80;99.90;;;;;;4966972;28;20110;-61
2022/11/28 03:44:54;;;;;;;18.70;2.30;;;6.80;99.90;;;;;;4973196;28;20053;-60
2022/11/28 03:47:25;;;;;;;24.73;2.92;;;6.90;99.90;;;;;;4969852;28;20126;-61
2022/11/28 03:49:55;;;;;;;20.35;2.78;;;7.00;99.90;;;;;;4982367;28;20046;-61
2022/11/28 03:52:27;;;;;;;28.02;3.20;;;7.00;99.90;;;;;;4971008;28;20022;-61
2022/11/28 03:55:02;;;;;;;28.35;2.40;;;7.00;99.90;;;;;;4965860;28;20098;-61
2022/11/28 03:57:45;;;;;;;25.67;3.58;;;7.10;99.90;;;;;;4977226;28;20093;-61
2022/11/28 04:00:12;;;;;;;16.50;3.15;;;7.20;99.90;;;;;;4968219;28;20042;-61
2022/11/28 04:03:18;;;;;;;26.38;3.10;;;7.00;99.90;;;;;;4976803;28;20089;-60
2022/11/28 04:06:04;;;;;;;18.55;3.00;;;6.90;99.90;;;;;;4971638;28;20034;-61
2022/11/28 04:08:40;;;;;;;18.52;2.38;;;6.80;99.90;;;;;;4966499;28;20046;-61
2022/11/28 04:11:24;;;;;;;16.40;2.47;;;6.80;99.90;;;;;;4975512;28;20023;-61
2022/11/28 04:14:19;;;;;;;17.85;3.15;;;6.70;99.90;;;;;;4969898;28;20383;-61
2022/11/28 04:16:59;;;;;;;23.63;3.05;;;6.80;99.90;;;;;;4967157;28;20083;-61
2022/11/28 04:19:28;;;;;;;24.48;2.90;;;6.90;99.90;;;;;;4970073;28;20039;-61
2022/11/28 04:22:06;;;;;;;20.30;2.78;;;6.90;99.90;;;;;;4969020;28;20057;-60
2022/11/28 04:25:06;;;;;;;25.92;3.10;;;7.00;99.90;;;;;;4971390;28;20034;-60
2022/11/28 04:27:40;;;;;;;20.02;2.40;;;7.00;99.90;;;;;;4957557;28;20054;-60
2022/11/28 04:30:07;;;;;;;14.43;2.67;;;6.80;99.90;;;;;;4975002;28;20482;-60
2022/11/28 04:32:39;;;;;;;15.63;3.35;;;6.80;99.90;;;;;;4968999;28;20042;-60
2022/11/28 04:35:18;;;;;;;18.73;3.15;;;6.80;99.90;;;;;;4969843;28;20116;-60
2022/11/28 04:37:47;;;;;;;16.98;2.33;;;6.80;99.90;;;;;;4965575;28;20092;-60
2022/11/28 04:40:14;;;;;;;18.35;3.00;;;6.60;99.90;;;;;;4973743;28;20038;-60
2022/11/28 04:42:49;;;;;;;17.75;2.85;;;6.60;99.90;;;;;;4971433;28;20181;-61
2022/11/28 04:45:38;;;;;;;17.50;2.35;;;6.50;99.90;;;;;;4979819;28;20035;-60
2022/11/28 04:48:05;;;;;;;16.17;3.08;;;6.50;99.90;;;;;;4971660;28;20111;-60
2022/11/28 04:50:40;;;;;;;19.88;2.88;;;6.40;99.90;;;;;;4978313;28;20027;-61
2022/11/28 04:53:29;;;;;;;17.05;2.63;;;6.30;99.90;;;;;;4978084;28;20177;-59
2022/11/28 04:56:01;;;;;;;10.20;2.47;;;6.30;99.90;;;;;;4981987;28;20026;-60
2022/11/28 04:58:35;;;;;;;16.20;2.00;;;6.30;99.90;;;;;;4977162;28;20057;-60
2022/11/28 05:01:05;;;;;;;14.68;2.42;;;6.30;99.90;;;;;;4972233;28;20085;-60
2022/11/28 05:03:31;;;;;;;18.77;2.92;;;6.30;99.90;;;;;;4978487;28;20034;-59
2022/11/28 05:05:57;;;;;;;18.05;3.40;;;6.40;99.90;;;;;;4975137;28;20031;-59
2022/11/28 05:08:24;;;;;;;18.05;2.70;;;6.40;99.90;;;;;;4981525;28;20050;-61
2022/11/28 05:10:49;;;;;;;21.63;2.85;;;6.50;99.90;;;;;;4982531;28;20483;-61
2022/11/28 05:13:16;;;;;;;29.00;3.20;;;6.50;99.90;;;;;;4977990;28;20038;-61
2022/11/28 05:15:41;;;;;;;17.73;2.83;;;6.60;99.90;;;;;;4981324;28;20026;-61
2022/11/28 05:18:08;;;;;;;18.65;2.70;;;6.50;99.90;;;;;;4982361;28;20448;-61
2022/11/28 05:20:34;;;;;;;28.35;3.60;;;6.40;99.90;;;;;;4978884;28;20165;-61
2022/11/28 05:23:00;;;;;;;14.20;2.85;;;6.30;99.90;;;;;;4984984;28;20062;-61
2022/11/28 05:25:25;;;;;;;16.55;2.80;;;6.30;99.90;;;;;;4972255;28;20031;-61
2022/11/28 05:27:51;;;;;;;31.30;6.22;;;6.40;99.90;;;;;;4983193;28;20034;-61
2022/11/28 05:30:18;;;;;;;21.40;3.53;;;6.40;99.90;;;;;;4972072;28;20031;-61
2022/11/28 05:32:43;;;;;;;15.73;3.10;;;6.30;99.90;;;;;;4975330;28;20114;-61
2022/11/28 05:35:09;;;;;;;22.73;4.40;;;6.30;99.90;;;;;;4983518;28;20106;-60
2022/11/28 05:37:35;;;;;;;12.13;3.25;;;6.20;99.90;;;;;;4990744;28;20042;-60
2022/11/28 05:40:01;;;;;;;28.52;3.13;;;6.20;99.90;;;;;;4986420;28;20050;-60
2022/11/28 05:42:30;;;;;;;13.48;3.10;;;6.20;99.90;;;;;;4979929;28;20426;-61
2022/11/28 05:44:56;;;;;;;17.20;2.58;;;6.20;99.90;;;;;;4975932;28;20398;-61
2022/11/28 05:47:22;;;;;;;18.70;2.58;;;6.20;99.90;;;;;;4973274;28;20045;-60
2022/11/28 05:49:48;;;;;;;9.82;1.83;;;6.30;99.90;;;;;;4973626;28;20085;-60
2022/11/28 05:52:14;;;;;;;10.70;1.58;;;6.30;99.90;;;;;;4984333;28;20483;-60
2022/11/28 05:54:40;;;;;;;14.68;1.23;;;6.40;99.90;;;;;;4981180;28;20437;-58
2022/11/28 05:57:06;;;;;;;4.00;1.52;;;6.20;99.90;;;;;;4977970;28;20054;-60
2022/11/28 05:59:32;;;;;;;7.00;1.45;;;6.10;99.90;;;;;;4979442;28;20486;-60
2022/11/28 06:01:58;;;;;;;9.40;1.52;;;6.10;99.90;;;;;;4984036;28;20481;-60
2022/11/28 06:04:24;;;;;;;12.52;1.70;;;6.10;99.90;;;;;;4980655;28;20039;-60
2022/11/28 06:06:50;;;;;;;10.88;1.60;;;6.30;99.90;;;;;;4973257;28;20058;-60
2022/11/28 06:09:16;;;;;;;12.55;2.50;;;6.50;99.90;;;;;;4983178;28;20043;-60
2022/11/28 06:11:42;;;;;;;10.18;2.13;;;6.60;99.90;;;;;;4969310;28;20026;-60
2022/11/28 06:14:09;;;;;;;10.77;2.28;;;6.70;99.90;;;;;;4978496;28;20027;-60
2022/11/28 06:16:35;;;;;;;16.02;1.98;;;6.80;99.90;;;;;;4971741;28;20038;-60
2022/11/28 06:19:03;;;;;;;8.02;1.95;;;6.70;99.90;;;;;;4977516;28;20375;-61
2022/11/28 06:21:29;;;;;;;7.68;2.55;;;6.60;99.90;;;;;;4971865;28;20113;-60
2022/11/28 06:23:59;;;;;;;9.57;2.35;;;6.50;99.90;;;;;;4975338;28;20030;-60
2022/11/28 06:26:27;;;;;;;8.82;1.83;;;6.50;99.90;;;;;;4975917;28;20062;-61
2022/11/28 06:28:54;;;;;;;8.48;2.08;;;6.40;99.90;;;;;;4977470;28;20117;-60
2022/11/28 06:31:26;;;;;;;6.28;1.80;;;6.40;99.90;;;;;;4966028;28;20108;-61
2022/11/28 06:33:52;;;;;;;10.85;3.80;;;6.20;99.90;;;;;;4979383;28;20053;-61
2022/11/28 06:36:19;;;;;;;12.93;2.45;;;6.20;99.90;;;;;;4977952;28;20073;-61
2022/11/28 06:38:45;;;;;;;7.65;2.40;;;6.20;99.90;;;;;;4977971;28;20030;-60
2022/11/28 06:41:14;;;;;;;8.32;2.42;;;6.20;99.90;;;;;;4979127;28;20033;-61
2022/11/28 06:43:40;;;;;;;8.00;2.10;;;6.20;99.90;;;;;;4963481;28;20137;-60
2022/11/28 06:46:18;;;;;;;11.07;2.78;;;6.20;99.90;;;;;;4972074;28;20113;-60
2022/11/28 06:48:45;;;;;;;5.28;2.38;;;6.20;99.90;;;;;;4968471;28;20031;-60
2022/11/28 06:51:12;;;;;;;7.35;2.40;;;6.20;99.90;;;;;;4968290;28;20479;-61
2022/11/28 06:53:38;;;;;;;5.85;2.28;;;6.30;99.90;;;;;;4970108;28;20344;-59
2022/11/28 06:56:08;;;;;;;11.48;3.05;;;6.30;99.90;;;;;;4971072;28;20030;-60
2022/11/28 06:58:34;;;;;;;14.85;4.82;;;6.20;99.90;;;;;;4963238;28;20034;-61
2022/11/28 07:01:20;;;;;;;6.97;2.90;;;6.20;99.90;;;;;;4976022;28;20058;-60
2022/11/28 07:03:47;;;;;;;6.80;2.55;;;6.20;99.90;;;;;;4969051;28;20394;-60
2022/11/28 07:06:14;;;;;;;4.28;2.30;;;6.20;99.90;;;;;;4963665;28;20038;-60
2022/11/28 07:08:40;;;;;;;4.72;2.10;;;6.10;99.90;;;;;;4966792;28;20053;-60
2022/11/28 07:11:11;;;;;;;7.20;2.45;;;6.10;99.90;;;;;;4974291;28;20027;-61
2022/11/28 07:13:37;;;;;;;5.20;2.75;;;6.00;99.90;;;;;;4975837;28;20049;-61
2022/11/28 07:16:04;;;;;;;6.78;2.40;;;6.00;99.90;;;;;;4976920;28;20031;-61
2022/11/28 07:18:29;;;;;;;7.07;2.40;;;6.00;99.90;;;;;;4977811;28;20038;-60
2022/11/28 07:20:55;;;;;;;7.55;3.35;;;6.10;99.90;;;;;;4970831;28;20216;-60
2022/11/28 07:23:21;;;;;;;11.95;3.47;;;6.10;99.90;;;;;;4970361;28;20502;-61
2022/11/28 07:25:47;;;;;;;7.68;2.92;;;6.10;99.90;;;;;;4972183;28;20037;-61
2022/11/28 07:28:12;;;;;;;7.65;2.88;;;6.20;99.90;;;;;;4976728;28;20562;-61
2022/11/28 07:30:38;;;;;;;11.93;3.47;;;6.20;99.90;;;;;;4971493;28;20391;-61
2022/11/28 07:33:04;;;;;;;10.32;4.10;;;6.20;99.90;;;;;;4969980;28;20030;-61
2022/11/28 07:35:33;;;;;;;13.75;3.95;;;6.20;99.90;;;;;;4972732;28;20418;-60
2022/11/28 07:37:59;;;;;;;11.48;3.40;;;6.20;99.90;;;;;;4972513;28;20463;-59
2022/11/28 07:40:24;;;;;;;12.57;4.63;;;6.20;99.90;;;;;;4982372;28;20026;-60
2022/11/28 07:42:50;;;;;;;9.68;4.15;;;6.20;99.90;;;;;;4972016;28;20434;-60
2022/11/28 07:45:16;;;;;;;12.95;4.30;;;6.20;99.90;;;;;;4966326;28;20026;-61
2022/11/28 07:47:42;;;;;;;12.15;3.95;;;6.20;99.90;;;;;;4967986;28;20035;-61
2022/11/28 07:50:08;;;;;;;10.30;3.80;;;6.30;99.90;;;;;;4968658;28;20136;-61
2022/11/28 07:52:34;;;;;;;8.27;4.00;;;6.20;99.90;;;;;;4972180;28;20071;-60
2022/11/28 07:55:00;;;;;;;7.30;2.90;;;6.30;99.90;;;;;;4969858;28;20049;-61
2022/11/28 07:57:25;;;;;;;16.20;3.58;;;6.50;99.90;;;;;;4974610;28;20122;-61
2022/11/28 07:59:52;;;;;;;11.73;2.47;;;6.70;99.90;;;;;;4976334;28;20033;-61
2022/11/28 08:02:17;;;;;;;8.05;2.10;;;7.00;99.90;;;;;;4972899;28;20042;-61
2022/11/28 08:04:43;;;;;;;13.88;1.75;;;7.30;99.90;;;;;;4968861;28;20035;-62
2022/11/28 08:07:12;;;;;;;6.43;0.82;;;7.40;99.90;;;;;;4978645;28;20030;-61
2022/11/28 08:09:38;;;;;;;8.38;1.80;;;7.50;99.90;;;;;;4976806;28;20039;-61
2022/11/28 08:12:04;;;;;;;13.45;1.95;;;7.50;99.90;;;;;;4969509;28;20019;-61
2022/11/28 08:14:29;;;;;;;6.55;1.10;;;7.60;99.90;;;;;;4969213;28;20037;-62
2022/11/28 08:16:55;;;;;;;11.23;1.88;;;7.60;99.90;;;;;;4970520;28;20034;-61
2022/11/28 08:19:21;;;;;;;3.08;0.63;;;7.70;99.90;;;;;;4967241;28;20031;-61
2022/11/28 08:21:47;;;;;;;5.10;0.75;;;7.70;99.90;;;;;;4971054;28;20375;-61
2022/11/28 08:24:13;;;;;;;5.40;1.10;;;7.70;99.90;;;;;;4975188;28;20030;-60
2022/11/28 08:26:39;;;;;;;3.67;1.40;;;7.70;99.90;;;;;;4967025;28;20031;-60
2022/11/28 08:29:05;;;;;;;5.72;0.88;;;7.70;99.90;;;;;;4976132;28;20044;-60
2022/11/28 08:31:33;;;;;;;5.75;0.70;;;7.70;99.90;;;;;;4967508;28;20069;-60
2022/11/28 08:34:02;;;;;;;6.00;1.15;;;7.60;99.90;;;;;;4972766;28;20038;-60
2022/11/28 08:36:28;;;;;;;3.70;0.88;;;7.60;99.90;;;;;;4970433;28;20026;-60
2022/11/28 08:38:54;;;;;;;7.13;0.95;;;7.60;99.90;;;;;;4974676;28;20061;-62
2022/11/28 08:41:22;;;;;;;7.30;0.98;;;7.70;99.90;;;;;;4967473;28;20277;-61
2022/11/28 08:43:48;;;;;;;6.60;0.80;;;7.70;99.90;;;;;;4971312;28;20051;-60
2022/11/28 08:46:18;;;;;;;5.65;1.27;;;7.70;99.90;;;;;;4970430;28;20458;-60
2022/11/28 08:48:44;;;;;;;8.93;1.48;;;7.80;99.90;;;;;;4971779;28;20034;-60
2022/11/28 08:51:15;;;;;;;6.22;1.23;;;7.90;99.90;;;;;;4980447;28;20522;-60
2022/11/28 08:53:42;;;;;;;4.57;1.33;;;7.90;99.90;;;;;;4968822;28;20058;-60
2022/11/28 08:56:12;;;;;;;17.45;2.92;;;8.00;99.90;;;;;;4968523;28;20054;-60
2022/11/28 08:58:38;;;;;;;8.93;1.92;;;8.00;99.90;;;;;;4961090;28;20038;-60
2022/11/28 09:01:13;;;;;;;9.00;1.67;;;8.00;99.90;;;;;;4970545;28;20050;-60
2022/11/28 09:03:39;;;;;;;11.15;2.13;;;8.00;99.90;;;;;;4969592;28;20102;-61
2022/11/28 09:06:05;;;;;;;8.50;1.35;;;8.00;99.90;;;;;;4974476;28;20391;-60
2022/11/28 09:08:30;;;;;;;5.43;1.20;;;8.00;99.90;;;;;;4970278;28;20047;-60
2022/11/28 09:10:56;;;;;;;5.93;0.60;;;8.00;99.90;;;;;;4970539;28;20029;-61
2022/11/28 09:13:22;;;;;;;3.53;0.65;;;7.80;99.90;;;;;;4980786;28;20509;-60
2022/11/28 09:15:48;;;;;;;6.50;0.85;;;7.90;99.90;;;;;;4978083;28;20054;-60
2022/11/28 09:18:14;;;;;;;3.53;1.10;;;8.00;99.90;;;;;;4967996;28;20033;-60
2022/11/28 09:20:41;;;;;;;5.32;0.90;;;8.00;99.90;;;;;;4972528;28;20022;-61
2022/11/28 09:23:07;;;;;;;2.90;0.85;;;8.00;99.90;;;;;;4968705;28;20023;-61
2022/11/28 09:25:37;;;;;;;8.55;1.00;;;8.00;99.90;;;;;;4968791;28;20031;-61
2022/11/28 09:28:03;;;;;;;9.07;1.20;;;8.00;99.90;;;;;;4966237;28;20035;-60
2022/11/28 09:30:29;;;;;;;4.18;0.63;;;8.00;99.90;;;;;;4967215;28;20462;-60
2022/11/28 09:32:55;;;;;;;4.57;0.80;;;8.00;99.90;;;;;;4969048;28;20114;-60
2022/11/28 09:35:21;;;;;;;8.07;1.42;;;8.10;99.90;;;;;;4976864;28;20031;-61
2022/11/28 09:37:47;;;;;;;4.20;0.90;;;8.30;99.90;;;;;;4979140;28;20084;-60
2022/11/28 09:40:24;;;;;;;5.38;0.77;;;8.30;99.90;;;;;;4975464;28;20045;-61
2022/11/28 09:42:50;;;;;;;6.22;0.90;;;8.30;99.90;;;;;;4962986;28;20086;-61
2022/11/28 09:45:22;;;;;;;6.55;1.00;;;8.40;99.90;;;;;;4970935;28;20110;-60
2022/11/28 09:48:16;;;;;;;5.00;1.10;;;8.50;99.90;;;;;;4967752;28;20038;-61
2022/11/28 09:50:44;;;;;;;8.80;1.20;;;8.60;99.90;;;;;;4974983;28;20053;-62
2022/11/28 09:53:13;;;;;;;5.43;1.52;;;8.70;99.90;;;;;;4972098;28;20042;-61
2022/11/28 09:55:46;;;;;;;2.85;0.70;;;8.80;99.90;;;;;;4963240;28;20075;-60
2022/11/28 09:58:26;;;;;;;7.53;1.33;;;8.70;99.90;;;;;;4984183;28;20129;-60
2022/11/28 10:01:20;;;;;;;5.80;0.98;;;8.60;99.90;;;;;;4974822;28;20150;-61
2022/11/28 10:04:19;;;;;;;7.53;0.70;;;8.80;99.90;;;;;;4978235;28;20143;-62
2022/11/28 10:07:10;;;;;;;6.18;1.90;;;9.00;99.90;;;;;;4969284;28;20031;-62
2022/11/28 10:10:02;;;;;;;5.80;0.98;;;9.20;99.90;;;;;;4972272;28;20101;-62
2022/11/28 10:12:59;;;;;;;7.82;0.77;;;9.30;99.90;;;;;;4974365;28;20026;-61
2022/11/28 10:15:43;;;;;;;7.85;0.90;;;9.30;99.90;;;;;;4968916;28;20376;-60
2022/11/28 10:18:27;;;;;;;4.75;1.20;;;9.30;99.90;;;;;;4971394;28;20121;-62
2022/11/28 10:20:57;;;;;;;4.78;0.65;;;9.40;99.90;;;;;;4977515;28;20034;-62
2022/11/28 10:23:34;;;;;;;5.00;0.80;;;9.50;99.90;;;;;;4971619;28;20567;-61
2022/11/28 10:26:14;;;;;;;8.25;1.77;;;9.60;99.90;;;;;;4971985;28;20038;-61
2022/11/28 10:28:45;;;;;;;4.88;0.90;;;9.90;99.90;;;;;;4969821;28;20049;-60
2022/11/28 10:31:40;;;;;;;5.28;0.68;;;10.10;99.90;;;;;;4971967;28;20030;-60
2022/11/28 10:34:25;;;;;;;6.95;0.90;;;10.10;99.90;;;;;;4966743;28;20031;-60
2022/11/28 10:36:57;;;;;;;12.20;2.03;;;10.00;99.90;;;;;;4974220;28;20038;-60
2022/11/28 10:39:25;;;;;;;10.57;1.20;;;10.10;99.90;;;;;;4971693;28;20090;-60
2022/11/28 10:42:11;;;;;;;12.98;2.40;;;10.10;99.90;;;;;;4965914;28;20030;-61
2022/11/28 10:44:54;;;;;;;10.23;2.03;;;10.00;99.90;;;;;;4964466;28;20101;-61
2022/11/28 10:47:38;;;;;;;9.93;1.25;;;10.00;99.90;;;;;;4967497;28;20035;-60
2022/11/28 10:50:23;;;;;;;5.50;1.75;;;10.00;99.90;;;;;;4978259;28;20041;-59
2022/11/28 10:52:52;;;;;;;7.60;1.35;;;9.90;99.90;;;;;;4967121;28;20036;-64
2022/11/28 10:55:42;;;;;;;10.20;1.40;;;10.00;99.90;;;;;;4973691;28;20177;-60
2022/11/28 10:58:31;;;;;;;7.78;1.50;;;10.00;99.90;;;;;;4968418;28;20038;-62
2022/11/28 11:00:59;;;;;;;9.13;1.10;;;10.00;99.90;;;;;;4965275;28;20487;-62
2022/11/28 11:03:28;;;;;;;9.80;1.55;;;10.00;99.90;;;;;;4974514;28;20073;-63
2022/11/28 11:05:55;;;;;;;10.30;1.30;;;10.10;99.90;;;;;;4968664;28;20022;-64
2022/11/28 11:08:24;;;;;;;9.30;1.23;;;10.20;99.90;;;;;;4974676;28;20038;-62
2022/11/28 11:10:51;;;;;;;12.05;2.63;;;10.30;99.90;;;;;;4972999;28;20038;-63
2022/11/28 11:13:20;;;;;;;6.78;1.60;;;10.50;99.90;;;;;;4975877;28;20620;-61
2022/11/28 11:15:53;;;;;;;9.55;2.10;;;10.80;99.90;;;;;;4971619;28;20031;-63
2022/11/28 11:18:28;;;;;;;7.78;1.63;;;10.90;99.90;;;;;;4969112;28;20035;-64
2022/11/28 11:21:19;;;;;;;4.57;0.98;;;11.00;99.90;;;;;;4972478;28;20023;-64
2022/11/28 11:23:47;;;;;;;6.78;1.52;;;11.10;99.90;;;;;;4971463;28;20125;-62
2022/11/28 11:26:28;;;;;;;3.08;1.25;;;11.60;99.90;;;;;;4971924;28;20082;-63
2022/11/28 11:28:55;;;;;;;5.20;1.15;;;12.20;99.90;;;;;;4975049;28;20495;-63
2022/11/28 11:31:30;;;;;;;7.45;0.85;;;12.60;99.90;;;;;;4970423;28;20387;-63
2022/11/28 11:34:06;;;;;;;9.45;1.05;;;13.30;99.90;;;;;;4965264;28;20041;-63
2022/11/28 11:36:35;;;;;;;4.88;0.82;;;13.70;99.90;;;;;;4972597;28;20031;-62
2022/11/28 11:39:10;;;;;;;3.70;1.00;;;13.90;99.90;;;;;;4971416;28;20027;-63
2022/11/28 11:41:40;;;;;;;3.58;0.57;;;14.20;99.90;;;;;;4967727;28;20034;-62
2022/11/28 11:44:21;;;;;;;4.88;0.68;;;14.60;99.90;;;;;;4981243;28;20043;-64
2022/11/28 11:46:53;;;;;;;3.10;0.70;;;14.40;99.90;;;;;;4972961;28;20085;-63
2022/11/28 11:49:40;;;;;;;6.32;0.93;;;14.40;99.90;;;;;;4973778;28;20050;-63
2022/11/28 11:52:12;;;;;;;5.20;1.15;;;14.00;99.90;;;;;;4972216;28;20023;-63
2022/11/28 11:54:58;;;;;;;2.53;0.77;;;13.20;99.90;;;;;;4971268;28;20035;-63
2022/11/28 11:57:35;;;;;;;3.53;0.60;;;12.40;99.90;;;;;;4977062;28;20460;-62
2022/11/28 12:00:05;;;;;;;2.28;0.60;;;11.90;99.90;;;;;;4964377;28;20038;-62
2022/11/28 12:02:49;;;;;;;6.88;0.80;;;11.40;99.90;;;;;;4962933;28;20041;-62
2022/11/28 12:05:33;;;;;;;5.85;0.70;;;11.10;99.90;;;;;;4977484;28;20442;-62
2022/11/28 12:08:09;;;;;;;3.22;0.40;;;10.90;99.90;;;;;;4974208;28;20035;-61
2022/11/28 12:10:39;;;;;;;3.13;0.70;;;10.80;99.90;;;;;;4966027;28;20050;-62
2022/11/28 12:13:12;;;;;;;2.70;1.38;;;10.80;99.90;;;;;;4967111;28;20137;-62
2022/11/28 12:15:53;;;;;;;5.13;0.80;;;10.80;99.90;;;;;;4976342;28;20038;-62
2022/11/28 12:18:24;;;;;;;5.43;0.90;;;10.90;99.90;;;;;;4969382;28;20023;-63
2022/11/28 12:20:55;;;;;;;4.57;0.68;;;10.70;99.90;;;;;;4974152;28;20054;-63
2022/11/28 12:23:43;;;;;;;3.60;0.85;;;10.50;99.90;;;;;;4967910;28;20034;-65
2022/11/28 12:26:09;;;;;;;4.82;1.42;;;10.40;99.90;;;;;;4969569;28;20030;-63
2022/11/28 12:28:53;;;;;;;1.80;0.50;;;10.30;99.90;;;;;;4972856;28;20077;-62
2022/11/28 12:31:39;;;;;;;4.72;0.80;;;10.20;99.90;;;;;;4978111;28;20366;-63
2022/11/28 12:34:32;;;;;;;4.32;0.50;;;10.20;99.90;;;;;;4974271;28;20030;-61
2022/11/28 12:37:23;;;;;;;3.33;0.38;;;10.10;99.90;;;;;;4956720;28;20031;-62
2022/11/28 12:39:48;;;;;;;2.38;0.30;;;10.10;99.90;;;;;;4971854;28;20035;-63
2022/11/28 12:42:40;;;;;;;5.50;0.80;;;10.10;99.90;;;;;;4978748;28;20053;-62
2022/11/28 12:45:20;;;;;;;6.68;0.98;;;10.40;99.90;;;;;;4963171;28;20034;-62
2022/11/28 12:48:11;;;;;;;8.48;1.10;;;11.00;99.90;;;;;;4966499;28;20118;-63
2022/11/28 12:50:44;;;;;;;7.10;2.10;;;11.50;99.90;;;;;;4968399;28;20045;-62
2022/11/28 12:53:37;;;;;;;2.95;1.58;;;11.90;99.90;;;;;;4962832;28;20034;-62
2022/11/28 12:56:14;;;;;;;7.05;1.00;;;12.50;99.90;;;;;;4966744;28;20022;-62
2022/11/28 12:58:53;;;;;;;10.15;1.25;;;13.10;99.90;;;;;;4963190;28;20414;-62
2022/11/28 13:01:25;;;;;;;7.65;1.10;;;13.10;99.90;;;;;;4959087;28;20062;-64
2022/11/28 13:04:09;;;;;;;4.43;1.20;;;13.20;99.90;;;;;;4976622;28;20479;-62
2022/11/28 13:06:50;;;;;;;4.93;0.82;;;13.70;99.90;;;;;;4980632;28;20028;-62
2022/11/28 13:09:33;;;;;;;10.63;2.38;;;14.10;99.90;;;;;;4974668;28;20027;-62
2022/11/28 13:12:21;;;;;;;6.70;1.08;;;15.00;99.90;;;;;;4969138;28;20045;-63
2022/11/28 13:14:52;;;;;;;4.43;1.08;;;15.60;99.90;;;;;;4982498;28;20027;-62
2022/11/28 13:17:26;;;;;;;9.63;1.30;;;16.10;99.90;;;;;;4965218;28;20026;-61
2022/11/28 13:19:57;;;;;;;4.53;1.02;;;16.90;99.90;;;;;;4977296;28;20398;-62